sensor_id;sensor_type;location;lat;lon;timestamp;temperature;humidity
2407;DHT22;37709;53.480;9.688;2023-09-18T00:01:42;16.20;99.90
2407;DHT22;37709;53.480;9.688;2023-09-18T00:04:10;16.10;99.90
2407;DHT22;37709;53.480;9.688;2023-09-18T00:06:38;16.00;99.90
2407;DHT22;37709;53.480;9.688;2023-09-18T00:09:06;15.90;99.90
2407;DHT22;37709;53.480;9.688;2023-09-18T00:11:39;15.90;99.90
2407;DHT22;37709;53.480;9.688;2023-09-18T00:14:08;15.90;99.90
2407;DHT22;37709;53.480;9.688;2023-09-18T00:16:36;15.90;99.90
2407;DHT22;37709;53.480;9.688;2023-09-18T00:19:24;15.90;99.90
2407;DHT22;37709;53.480;9.688;2023-09-18T00:21:52;15.80;99.90
2407;DHT22;37709;53.480;9.688;2023-09-18T00:24:21;15.70;99.90
2407;DHT22;37709;53.480;9.688;2023-09-18T00:26:48;15.80;99.90
2407;DHT22;37709;53.480;9.688;2023-09-18T00:29:17;15.80;99.90
2407;DHT22;37709;53.480;9.688;2023-09-18T00:31:45;15.80;99.90
2407;DHT22;37709;53.480;9.688;2023-09-18T00:34:12;15.70;99.90
2407;DHT22;37709;53.480;9.688;2023-09-18T00:36:39;15.70;99.90
2407;DHT22;37709;53.480;9.688;2023-09-18T00:39:06;15.70;99.90
2407;DHT22;37709;53.480;9.688;2023-09-18T00:41:34;15.70;99.90
2407;DHT22;37709;53.480;9.688;2023-09-18T00:44:01;15.80;99.90
2407;DHT22;37709;53.480;9.688;2023-09-18T00:46:29;15.80;99.90
2407;DHT22;37709;53.480;9.688;2023-09-18T00:48:56;15.80;99.90
2407;DHT22;37709;53.480;9.688;2023-09-18T00:51:23;15.70;99.90
2407;DHT22;37709;53.480;9.688;2023-09-18T00:53:51;15.60;99.90
2407;DHT22;37709;53.480;9.688;2023-09-18T00:56:19;15.50;99.90
2407;DHT22;37709;53.480;9.688;2023-09-18T00:58:50;15.40;99.90
2407;DHT22;37709;53.480;9.688;2023-09-18T01:01:43;15.40;99.90
2407;DHT22;37709;53.480;9.688;2023-09-18T01:04:12;15.30;99.90
2407;DHT22;37709;53.480;9.688;2023-09-18T01:06:40;15.30;99.90
2407;DHT22;37709;53.480;9.688;2023-09-18T01:09:08;15.20;99.90
2407;DHT22;37709;53.480;9.688;2023-09-18T01:14:20;15.20;99.90
2407;DHT22;37709;53.480;9.688;2023-09-18T01:16:56;15.10;99.90
2407;DHT22;37709;53.480;9.688;2023-09-18T01:19:38;15.00;99.90
2407;DHT22;37709;53.480;9.688;2023-09-18T01:22:08;14.90;99.90
2407;DHT22;37709;53.480;9.688;2023-09-18T01:24:38;14.90;99.90
2407;DHT22;37709;53.480;9.688;2023-09-18T01:27:14;14.80;99.90
2407;DHT22;37709;53.480;9.688;2023-09-18T01:29:41;14.80;99.90
2407;DHT22;37709;53.480;9.688;2023-09-18T01:32:09;14.70;99.90
2407;DHT22;37709;53.480;9.688;2023-09-18T01:34:42;14.80;99.90
2407;DHT22;37709;53.480;9.688;2023-09-18T01:37:12;14.80;99.90
2407;DHT22;37709;53.480;9.688;2023-09-18T01:39:41;14.80;99.90
2407;DHT22;37709;53.480;9.688;2023-09-18T01:42:09;14.80;99.90
2407;DHT22;37709;53.480;9.688;2023-09-18T01:44:37;14.80;99.90
2407;DHT22;37709;53.480;9.688;2023-09-18T01:47:10;14.80;99.90
2407;DHT22;37709;53.480;9.688;2023-09-18T01:49:39;14.90;99.90
2407;DHT22;37709;53.480;9.688;2023-09-18T01:52:09;14.90;99.90
2407;DHT22;37709;53.480;9.688;2023-09-18T01:54:38;14.90;99.90
2407;DHT22;37709;53.480;9.688;2023-09-18T01:57:07;14.80;99.90
2407;DHT22;37709;53.480;9.688;2023-09-18T01:59:35;14.80;99.90
2407;DHT22;37709;53.480;9.688;2023-09-18T02:02:05;14.80;99.90
2407;DHT22;37709;53.480;9.688;2023-09-18T02:04:49;14.70;99.90
2407;DHT22;37709;53.480;9.688;2023-09-18T02:07:35;14.70;99.90
2407;DHT22;37709;53.480;9.688;2023-09-18T02:10:08;14.70;99.90
2407;DHT22;37709;53.480;9.688;2023-09-18T02:12:37;14.60;99.90
2407;DHT22;37709;53.480;9.688;2023-09-18T02:15:06;14.60;99.90
2407;DHT22;37709;53.480;9.688;2023-09-18T02:17:34;14.60;99.90
2407;DHT22;37709;53.480;9.688;2023-09-18T02:20:02;14.50;99.90
2407;DHT22;37709;53.480;9.688;2023-09-18T02:22:32;14.60;99.90
2407;DHT22;37709;53.480;9.688;2023-09-18T02:25:00;14.50;99.90
2407;DHT22;37709;53.480;9.688;2023-09-18T02:27:27;14.40;99.90
2407;DHT22;37709;53.480;9.688;2023-09-18T02:29:54;14.40;99.90
2407;DHT22;37709;53.480;9.688;2023-09-18T02:32:22;14.40;99.90
2407;DHT22;37709;53.480;9.688;2023-09-18T02:34:49;14.30;99.90
2407;DHT22;37709;53.480;9.688;2023-09-18T02:37:16;14.30;99.90
2407;DHT22;37709;53.480;9.688;2023-09-18T02:39:44;14.30;99.90
2407;DHT22;37709;53.480;9.688;2023-09-18T02:42:12;14.20;99.90
2407;DHT22;37709;53.480;9.688;2023-09-18T02:44:39;14.30;99.90
2407;DHT22;37709;53.480;9.688;2023-09-18T02:47:09;14.30;99.90
2407;DHT22;37709;53.480;9.688;2023-09-18T02:49:36;14.40;99.90
2407;DHT22;37709;53.480;9.688;2023-09-18T02:52:04;14.30;99.90
2407;DHT22;37709;53.480;9.688;2023-09-18T02:54:32;14.30;99.90
2407;DHT22;37709;53.480;9.688;2023-09-18T02:57:00;14.40;99.90
2407;DHT22;37709;53.480;9.688;2023-09-18T02:59:29;14.40;99.90
2407;DHT22;37709;53.480;9.688;2023-09-18T03:01:56;14.50;99.90
2407;DHT22;37709;53.480;9.688;2023-09-18T03:04:24;14.50;99.90
2407;DHT22;37709;53.480;9.688;2023-09-18T03:06:51;14.50;99.90
2407;DHT22;37709;53.480;9.688;2023-09-18T03:09:18;14.50;99.90
2407;DHT22;37709;53.480;9.688;2023-09-18T03:11:46;14.50;99.90
2407;DHT22;37709;53.480;9.688;2023-09-18T03:14:13;14.60;99.90
2407;DHT22;37709;53.480;9.688;2023-09-18T03:16:42;14.50;99.90
2407;DHT22;37709;53.480;9.688;2023-09-18T03:19:09;14.50;99.90
2407;DHT22;37709;53.480;9.688;2023-09-18T03:21:37;14.50;99.90
2407;DHT22;37709;53.480;9.688;2023-09-18T03:24:06;14.50;99.90
2407;DHT22;37709;53.480;9.688;2023-09-18T03:26:33;14.40;99.90
2407;DHT22;37709;53.480;9.688;2023-09-18T03:29:03;14.30;99.90
2407;DHT22;37709;53.480;9.688;2023-09-18T03:31:31;14.30;99.90
2407;DHT22;37709;53.480;9.688;2023-09-18T03:33:59;14.30;99.90
2407;DHT22;37709;53.480;9.688;2023-09-18T03:36:27;14.30;99.90
2407;DHT22;37709;53.480;9.688;2023-09-18T03:38:54;14.30;99.90
2407;DHT22;37709;53.480;9.688;2023-09-18T03:41:22;14.20;99.90
2407;DHT22;37709;53.480;9.688;2023-09-18T03:43:50;14.20;99.90
2407;DHT22;37709;53.480;9.688;2023-09-18T03:46:18;14.20;99.90
2407;DHT22;37709;53.480;9.688;2023-09-18T03:48:49;14.20;99.90
2407;DHT22;37709;53.480;9.688;2023-09-18T03:51:16;14.20;99.90
2407;DHT22;37709;53.480;9.688;2023-09-18T03:53:45;14.10;99.90
2407;DHT22;37709;53.480;9.688;2023-09-18T03:56:14;14.10;99.90
2407;DHT22;37709;53.480;9.688;2023-09-18T03:58:41;14.20;99.90
2407;DHT22;37709;53.480;9.688;2023-09-18T04:01:10;14.20;99.90
2407;DHT22;37709;53.480;9.688;2023-09-18T04:03:37;14.20;99.90
2407;DHT22;37709;53.480;9.688;2023-09-18T04:06:05;14.20;99.90
2407;DHT22;37709;53.480;9.688;2023-09-18T04:08:33;14.10;99.90
2407;DHT22;37709;53.480;9.688;2023-09-18T04:11:01;14.20;99.90
2407;DHT22;37709;53.480;9.688;2023-09-18T04:13:30;14.20;99.90
2407;DHT22;37709;53.480;9.688;2023-09-18T04:15:57;14.10;99.90
2407;DHT22;37709;53.480;9.688;2023-09-18T04:18:27;14.10;99.90
2407;DHT22;37709;53.480;9.688;2023-09-18T04:20:59;14.10;99.90
2407;DHT22;37709;53.480;9.688;2023-09-18T04:23:27;14.10;99.90
2407;DHT22;37709;53.480;9.688;2023-09-18T04:25:55;14.10;99.90
2407;DHT22;37709;53.480;9.688;2023-09-18T04:28:22;14.10;99.90
2407;DHT22;37709;53.480;9.688;2023-09-18T04:30:50;14.10;99.90
2407;DHT22;37709;53.480;9.688;2023-09-18T04:33:22;14.20;99.90
2407;DHT22;37709;53.480;9.688;2023-09-18T04:35:50;14.20;99.90
2407;DHT22;37709;53.480;9.688;2023-09-18T04:38:18;14.10;99.90
2407;DHT22;37709;53.480;9.688;2023-09-18T04:40:47;14.20;99.90
2407;DHT22;37709;53.480;9.688;2023-09-18T04:43:15;14.20;99.90
2407;DHT22;37709;53.480;9.688;2023-09-18T04:45:44;14.30;99.90
2407;DHT22;37709;53.480;9.688;2023-09-18T04:48:14;14.30;99.90
2407;DHT22;37709;53.480;9.688;2023-09-18T04:50:42;14.40;99.90
2407;DHT22;37709;53.480;9.688;2023-09-18T04:53:36;14.30;99.90
2407;DHT22;37709;53.480;9.688;2023-09-18T04:56:03;14.30;99.90
2407;DHT22;37709;53.480;9.688;2023-09-18T04:58:32;14.30;99.90
2407;DHT22;37709;53.480;9.688;2023-09-18T05:01:00;14.30;99.90
2407;DHT22;37709;53.480;9.688;2023-09-18T05:03:36;14.30;99.90
2407;DHT22;37709;53.480;9.688;2023-09-18T05:06:05;14.50;99.90
2407;DHT22;37709;53.480;9.688;2023-09-18T05:08:33;14.50;99.90
2407;DHT22;37709;53.480;9.688;2023-09-18T05:11:01;14.60;99.90
2407;DHT22;37709;53.480;9.688;2023-09-18T05:13:29;14.70;99.90
2407;DHT22;37709;53.480;9.688;2023-09-18T05:15:56;14.70;99.90
2407;DHT22;37709;53.480;9.688;2023-09-18T05:18:25;14.80;99.90
2407;DHT22;37709;53.480;9.688;2023-09-18T05:20:55;14.90;99.90
2407;DHT22;37709;53.480;9.688;2023-09-18T05:23:23;15.00;99.90
2407;DHT22;37709;53.480;9.688;2023-09-18T05:26:16;15.00;99.90
2407;DHT22;37709;53.480;9.688;2023-09-18T05:28:44;15.20;99.90
2407;DHT22;37709;53.480;9.688;2023-09-18T05:31:11;15.20;99.90
2407;DHT22;37709;53.480;9.688;2023-09-18T05:33:38;15.20;99.90
2407;DHT22;37709;53.480;9.688;2023-09-18T05:36:06;15.20;99.90
2407;DHT22;37709;53.480;9.688;2023-09-18T05:38:33;15.20;99.90
2407;DHT22;37709;53.480;9.688;2023-09-18T05:41:00;15.20;99.90
2407;DHT22;37709;53.480;9.688;2023-09-18T05:43:28;15.20;99.90
2407;DHT22;37709;53.480;9.688;2023-09-18T05:45:55;15.30;99.90
2407;DHT22;37709;53.480;9.688;2023-09-18T05:48:23;15.30;99.90
2407;DHT22;37709;53.480;9.688;2023-09-18T05:50:51;15.40;99.90
2407;DHT22;37709;53.480;9.688;2023-09-18T05:53:20;15.60;99.90
2407;DHT22;37709;53.480;9.688;2023-09-18T05:55:48;15.90;99.90
2407;DHT22;37709;53.480;9.688;2023-09-18T05:58:15;16.10;99.90
2407;DHT22;37709;53.480;9.688;2023-09-18T06:00:45;16.30;99.90
2407;DHT22;37709;53.480;9.688;2023-09-18T06:03:13;16.40;99.90
2407;DHT22;37709;53.480;9.688;2023-09-18T06:05:42;16.60;99.90
2407;DHT22;37709;53.480;9.688;2023-09-18T06:08:10;17.00;99.90
2407;DHT22;37709;53.480;9.688;2023-09-18T06:10:38;17.30;99.90
2407;DHT22;37709;53.480;9.688;2023-09-18T06:13:09;17.70;99.90
2407;DHT22;37709;53.480;9.688;2023-09-18T06:15:37;18.00;99.90
2407;DHT22;37709;53.480;9.688;2023-09-18T06:18:04;18.30;99.90
2407;DHT22;37709;53.480;9.688;2023-09-18T06:20:33;18.40;99.90
2407;DHT22;37709;53.480;9.688;2023-09-18T06:23:01;18.60;99.90
2407;DHT22;37709;53.480;9.688;2023-09-18T06:25:30;18.70;99.90
2407;DHT22;37709;53.480;9.688;2023-09-18T06:27:58;18.70;99.90
2407;DHT22;37709;53.480;9.688;2023-09-18T06:30:28;18.90;99.90
2407;DHT22;37709;53.480;9.688;2023-09-18T06:32:57;18.80;99.90
2407;DHT22;37709;53.480;9.688;2023-09-18T06:35:25;18.70;99.90
2407;DHT22;37709;53.480;9.688;2023-09-18T06:37:52;18.80;99.90
2407;DHT22;37709;53.480;9.688;2023-09-18T06:40:22;19.00;99.90
2407;DHT22;37709;53.480;9.688;2023-09-18T06:42:50;19.20;99.90
2407;DHT22;37709;53.480;9.688;2023-09-18T06:45:20;19.30;99.90
2407;DHT22;37709;53.480;9.688;2023-09-18T06:47:48;19.40;99.90
2407;DHT22;37709;53.480;9.688;2023-09-18T06:50:18;19.70;99.90
2407;DHT22;37709;53.480;9.688;2023-09-18T06:52:46;20.00;99.90
2407;DHT22;37709;53.480;9.688;2023-09-18T06:55:14;20.20;99.90
2407;DHT22;37709;53.480;9.688;2023-09-18T06:57:43;20.30;99.90
2407;DHT22;37709;53.480;9.688;2023-09-18T07:00:12;20.60;99.90
2407;DHT22;37709;53.480;9.688;2023-09-18T07:02:43;20.90;99.90
2407;DHT22;37709;53.480;9.688;2023-09-18T07:05:36;21.20;99.90
2407;DHT22;37709;53.480;9.688;2023-09-18T07:08:04;21.60;99.90
2407;DHT22;37709;53.480;9.688;2023-09-18T07:10:32;21.80;99.90
2407;DHT22;37709;53.480;9.688;2023-09-18T07:13:00;22.00;99.90
2407;DHT22;37709;53.480;9.688;2023-09-18T07:15:27;22.10;99.90
2407;DHT22;37709;53.480;9.688;2023-09-18T07:17:55;22.10;99.90
2407;DHT22;37709;53.480;9.688;2023-09-18T07:20:22;22.20;99.90
2407;DHT22;37709;53.480;9.688;2023-09-18T07:22:50;22.40;99.90
2407;DHT22;37709;53.480;9.688;2023-09-18T07:25:18;22.60;99.90
2407;DHT22;37709;53.480;9.688;2023-09-18T07:27:45;22.50;99.90
2407;DHT22;37709;53.480;9.688;2023-09-18T07:30:14;22.30;99.90
2407;DHT22;37709;53.480;9.688;2023-09-18T07:32:46;22.30;99.90
2407;DHT22;37709;53.480;9.688;2023-09-18T07:35:14;22.30;99.90
2407;DHT22;37709;53.480;9.688;2023-09-18T07:37:43;22.40;99.90
2407;DHT22;37709;53.480;9.688;2023-09-18T07:40:12;22.50;99.90
2407;DHT22;37709;53.480;9.688;2023-09-18T07:42:40;22.70;99.90
2407;DHT22;37709;53.480;9.688;2023-09-18T07:45:09;22.90;99.90
2407;DHT22;37709;53.480;9.688;2023-09-18T07:47:36;23.20;99.90
2407;DHT22;37709;53.480;9.688;2023-09-18T07:50:04;23.40;99.90
2407;DHT22;37709;53.480;9.688;2023-09-18T07:52:34;23.50;99.90
2407;DHT22;37709;53.480;9.688;2023-09-18T07:55:01;23.50;99.90
2407;DHT22;37709;53.480;9.688;2023-09-18T07:57:30;23.60;99.90
2407;DHT22;37709;53.480;9.688;2023-09-18T08:00:00;23.50;99.90
2407;DHT22;37709;53.480;9.688;2023-09-18T08:02:40;23.50;99.90
2407;DHT22;37709;53.480;9.688;2023-09-18T08:05:08;23.20;99.90
2407;DHT22;37709;53.480;9.688;2023-09-18T08:07:38;23.10;99.90
2407;DHT22;37709;53.480;9.688;2023-09-18T08:10:06;22.90;99.90
2407;DHT22;37709;53.480;9.688;2023-09-18T08:12:35;22.70;99.90
2407;DHT22;37709;53.480;9.688;2023-09-18T08:15:04;22.50;99.90
2407;DHT22;37709;53.480;9.688;2023-09-18T08:17:33;22.20;99.90
2407;DHT22;37709;53.480;9.688;2023-09-18T08:20:01;22.10;99.90
2407;DHT22;37709;53.480;9.688;2023-09-18T08:22:28;22.00;99.90
2407;DHT22;37709;53.480;9.688;2023-09-18T08:24:55;21.90;99.90
2407;DHT22;37709;53.480;9.688;2023-09-18T08:27:24;21.60;99.90
2407;DHT22;37709;53.480;9.688;2023-09-18T08:29:52;21.40;99.90
2407;DHT22;37709;53.480;9.688;2023-09-18T08:32:19;21.00;99.90
2407;DHT22;37709;53.480;9.688;2023-09-18T08:34:54;20.90;99.90
2407;DHT22;37709;53.480;9.688;2023-09-18T08:37:21;20.90;99.90
2407;DHT22;37709;53.480;9.688;2023-09-18T08:39:49;20.90;99.90
2407;DHT22;37709;53.480;9.688;2023-09-18T08:42:17;20.90;99.90
2407;DHT22;37709;53.480;9.688;2023-09-18T08:44:51;21.10;99.90
2407;DHT22;37709;53.480;9.688;2023-09-18T08:47:21;21.20;99.90
2407;DHT22;37709;53.480;9.688;2023-09-18T08:49:54;21.40;99.90
2407;DHT22;37709;53.480;9.688;2023-09-18T08:52:23;21.40;99.90
2407;DHT22;37709;53.480;9.688;2023-09-18T08:54:54;21.60;99.90
2407;DHT22;37709;53.480;9.688;2023-09-18T08:57:21;21.80;99.90
2407;DHT22;37709;53.480;9.688;2023-09-18T08:59:50;21.60;99.90
2407;DHT22;37709;53.480;9.688;2023-09-18T09:02:19;21.40;99.90
2407;DHT22;37709;53.480;9.688;2023-09-18T09:04:46;21.60;99.90
2407;DHT22;37709;53.480;9.688;2023-09-18T09:07:19;21.90;99.90
2407;DHT22;37709;53.480;9.688;2023-09-18T09:09:48;21.90;99.90
2407;DHT22;37709;53.480;9.688;2023-09-18T09:12:51;22.10;99.90
2407;DHT22;37709;53.480;9.688;2023-09-18T09:15:25;24.60;99.90
2407;DHT22;37709;53.480;9.688;2023-09-18T09:18:06;26.80;99.90
2407;DHT22;37709;53.480;9.688;2023-09-18T09:20:35;26.70;99.90
2407;DHT22;37709;53.480;9.688;2023-09-18T09:23:09;27.30;99.90
2407;DHT22;37709;53.480;9.688;2023-09-18T09:25:36;27.90;99.90
2407;DHT22;37709;53.480;9.688;2023-09-18T09:28:06;28.10;99.90
2407;DHT22;37709;53.480;9.688;2023-09-18T09:30:35;27.60;99.90
2407;DHT22;37709;53.480;9.688;2023-09-18T09:33:05;26.60;99.90
2407;DHT22;37709;53.480;9.688;2023-09-18T09:35:35;25.90;99.90
2407;DHT22;37709;53.480;9.688;2023-09-18T09:38:12;25.30;99.90
2407;DHT22;37709;53.480;9.688;2023-09-18T09:40:43;24.70;99.90
2407;DHT22;37709;53.480;9.688;2023-09-18T09:43:13;24.50;99.90
2407;DHT22;37709;53.480;9.688;2023-09-18T09:45:42;24.40;99.90
2407;DHT22;37709;53.480;9.688;2023-09-18T09:48:12;24.40;99.90
2407;DHT22;37709;53.480;9.688;2023-09-18T09:50:45;24.40;99.90
2407;DHT22;37709;53.480;9.688;2023-09-18T09:53:17;24.30;99.90
2407;DHT22;37709;53.480;9.688;2023-09-18T09:55:51;24.30;99.90
2407;DHT22;37709;53.480;9.688;2023-09-18T09:58:26;24.20;99.90
2407;DHT22;37709;53.480;9.688;2023-09-18T10:00:57;24.30;99.90
2407;DHT22;37709;53.480;9.688;2023-09-18T10:03:26;24.40;99.90
2407;DHT22;37709;53.480;9.688;2023-09-18T10:05:56;24.60;99.90
2407;DHT22;37709;53.480;9.688;2023-09-18T10:08:26;24.70;99.90
2407;DHT22;37709;53.480;9.688;2023-09-18T10:11:01;24.60;99.90
2407;DHT22;37709;53.480;9.688;2023-09-18T10:13:43;24.50;99.90
2407;DHT22;37709;53.480;9.688;2023-09-18T10:16:16;24.40;99.90
2407;DHT22;37709;53.480;9.688;2023-09-18T10:19:09;24.50;99.90
2407;DHT22;37709;53.480;9.688;2023-09-18T10:21:45;24.80;99.90
2407;DHT22;37709;53.480;9.688;2023-09-18T10:24:25;25.40;99.90
2407;DHT22;37709;53.480;9.688;2023-09-18T10:26:58;26.60;99.90
2407;DHT22;37709;53.480;9.688;2023-09-18T10:29:32;28.10;99.90
2407;DHT22;37709;53.480;9.688;2023-09-18T10:32:03;28.50;99.90
2407;DHT22;37709;53.480;9.688;2023-09-18T10:34:32;29.50;99.90
2407;DHT22;37709;53.480;9.688;2023-09-18T10:37:02;30.60;99.90
2407;DHT22;37709;53.480;9.688;2023-09-18T10:39:38;29.80;99.90
2407;DHT22;37709;53.480;9.688;2023-09-18T10:42:12;29.10;99.90
2407;DHT22;37709;53.480;9.688;2023-09-18T10:44:41;29.30;99.90
2407;DHT22;37709;53.480;9.688;2023-09-18T10:47:10;31.50;99.90
2407;DHT22;37709;53.480;9.688;2023-09-18T10:49:38;32.50;99.90
2407;DHT22;37709;53.480;9.688;2023-09-18T10:52:11;31.50;99.90
2407;DHT22;37709;53.480;9.688;2023-09-18T10:54:39;30.40;99.90
2407;DHT22;37709;53.480;9.688;2023-09-18T10:57:07;29.90;99.90
2407;DHT22;37709;53.480;9.688;2023-09-18T10:59:46;31.40;99.90
2407;DHT22;37709;53.480;9.688;2023-09-18T11:02:15;32.70;99.90
2407;DHT22;37709;53.480;9.688;2023-09-18T11:04:47;32.30;99.90
2407;DHT22;37709;53.480;9.688;2023-09-18T11:07:22;31.60;99.90
2407;DHT22;37709;53.480;9.688;2023-09-18T11:09:50;30.50;99.90
2407;DHT22;37709;53.480;9.688;2023-09-18T11:12:18;29.30;99.90
2407;DHT22;37709;53.480;9.688;2023-09-18T11:14:57;29.00;99.90
2407;DHT22;37709;53.480;9.688;2023-09-18T11:17:31;28.70;99.90
2407;DHT22;37709;53.480;9.688;2023-09-18T11:20:08;28.40;99.90
2407;DHT22;37709;53.480;9.688;2023-09-18T11:22:40;28.20;99.90
2407;DHT22;37709;53.480;9.688;2023-09-18T11:25:34;28.00;99.90
2407;DHT22;37709;53.480;9.688;2023-09-18T11:28:07;27.80;99.90
2407;DHT22;37709;53.480;9.688;2023-09-18T11:30:36;27.50;99.90
2407;DHT22;37709;53.480;9.688;2023-09-18T11:33:05;27.20;99.90
2407;DHT22;37709;53.480;9.688;2023-09-18T11:35:33;27.10;99.90
2407;DHT22;37709;53.480;9.688;2023-09-18T11:38:11;27.10;99.90
2407;DHT22;37709;53.480;9.688;2023-09-18T11:40:40;26.90;99.90
2407;DHT22;37709;53.480;9.688;2023-09-18T11:43:26;26.90;99.90
2407;DHT22;37709;53.480;9.688;2023-09-18T11:45:59;26.60;99.90
2407;DHT22;37709;53.480;9.688;2023-09-18T11:48:29;26.40;99.90
2407;DHT22;37709;53.480;9.688;2023-09-18T11:51:02;26.40;99.90
2407;DHT22;37709;53.480;9.688;2023-09-18T11:53:34;26.50;99.90
2407;DHT22;37709;53.480;9.688;2023-09-18T11:56:03;26.40;99.90
2407;DHT22;37709;53.480;9.688;2023-09-18T11:58:31;26.70;99.90
2407;DHT22;37709;53.480;9.688;2023-09-18T12:01:11;26.40;99.90
2407;DHT22;37709;53.480;9.688;2023-09-18T12:03:40;26.50;99.90
2407;DHT22;37709;53.480;9.688;2023-09-18T12:06:07;26.90;99.90
2407;DHT22;37709;53.480;9.688;2023-09-18T12:08:36;27.40;99.90
2407;DHT22;37709;53.480;9.688;2023-09-18T12:11:06;28.40;99.90
2407;DHT22;37709;53.480;9.688;2023-09-18T12:13:34;29.00;99.90
2407;DHT22;37709;53.480;9.688;2023-09-18T12:16:03;29.70;99.90
2407;DHT22;37709;53.480;9.688;2023-09-18T12:18:33;31.70;99.90
2407;DHT22;37709;53.480;9.688;2023-09-18T12:21:06;31.90;99.90
2407;DHT22;37709;53.480;9.688;2023-09-18T12:23:41;31.00;99.90
2407;DHT22;37709;53.480;9.688;2023-09-18T12:26:16;30.30;99.90
2407;DHT22;37709;53.480;9.688;2023-09-18T12:28:44;29.50;99.90
2407;DHT22;37709;53.480;9.688;2023-09-18T12:31:13;28.80;99.90
2407;DHT22;37709;53.480;9.688;2023-09-18T12:33:43;28.70;99.90
2407;DHT22;37709;53.480;9.688;2023-09-18T12:36:19;29.80;99.90
2407;DHT22;37709;53.480;9.688;2023-09-18T12:38:57;30.70;99.90
2407;DHT22;37709;53.480;9.688;2023-09-18T12:41:25;30.00;99.90
2407;DHT22;37709;53.480;9.688;2023-09-18T12:43:59;29.80;99.90
2407;DHT22;37709;53.480;9.688;2023-09-18T12:46:27;29.90;99.90
2407;DHT22;37709;53.480;9.688;2023-09-18T12:48:57;30.20;99.90
2407;DHT22;37709;53.480;9.688;2023-09-18T12:51:30;31.90;99.90
2407;DHT22;37709;53.480;9.688;2023-09-18T12:54:01;34.60;99.90
2407;DHT22;37709;53.480;9.688;2023-09-18T12:56:40;37.80;96.20
2407;DHT22;37709;53.480;9.688;2023-09-18T12:59:09;38.40;93.00
2407;DHT22;37709;53.480;9.688;2023-09-18T13:01:46;39.30;91.40
2407;DHT22;37709;53.480;9.688;2023-09-18T13:04:14;39.70;87.20
2407;DHT22;37709;53.480;9.688;2023-09-18T13:06:42;38.90;84.30
2407;DHT22;37709;53.480;9.688;2023-09-18T13:09:20;35.30;89.10
2407;DHT22;37709;53.480;9.688;2023-09-18T13:11:56;32.40;92.30
2407;DHT22;37709;53.480;9.688;2023-09-18T13:14:24;30.50;95.30
2407;DHT22;37709;53.480;9.688;2023-09-18T13:16:52;30.20;95.40
2407;DHT22;37709;53.480;9.688;2023-09-18T13:19:20;28.80;97.30
2407;DHT22;37709;53.480;9.688;2023-09-18T13:21:49;28.80;98.10
2407;DHT22;37709;53.480;9.688;2023-09-18T13:24:27;28.40;99.00
2407;DHT22;37709;53.480;9.688;2023-09-18T13:26:56;28.60;99.30
2407;DHT22;37709;53.480;9.688;2023-09-18T13:29:23;28.40;99.00
2407;DHT22;37709;53.480;9.688;2023-09-18T13:31:51;27.90;99.80
2407;DHT22;37709;53.480;9.688;2023-09-18T13:34:21;27.40;99.90
2407;DHT22;37709;53.480;9.688;2023-09-18T13:36:49;27.00;99.90
2407;DHT22;37709;53.480;9.688;2023-09-18T13:39:16;26.90;99.90
2407;DHT22;37709;53.480;9.688;2023-09-18T13:41:44;26.60;99.90
2407;DHT22;37709;53.480;9.688;2023-09-18T13:44:13;26.50;99.90
2407;DHT22;37709;53.480;9.688;2023-09-18T13:46:40;26.40;99.90
2407;DHT22;37709;53.480;9.688;2023-09-18T13:49:09;26.30;99.90
2407;DHT22;37709;53.480;9.688;2023-09-18T13:51:37;26.20;99.90
2407;DHT22;37709;53.480;9.688;2023-09-18T13:54:05;26.00;99.90
2407;DHT22;37709;53.480;9.688;2023-09-18T13:56:35;25.90;99.90
2407;DHT22;37709;53.480;9.688;2023-09-18T13:59:02;25.80;99.90
2407;DHT22;37709;53.480;9.688;2023-09-18T14:01:35;25.80;99.90
2407;DHT22;37709;53.480;9.688;2023-09-18T14:04:02;25.80;99.90
2407;DHT22;37709;53.480;9.688;2023-09-18T14:06:32;25.90;99.90
2407;DHT22;37709;53.480;9.688;2023-09-18T14:09:00;26.00;99.90
2407;DHT22;37709;53.480;9.688;2023-09-18T14:11:27;26.10;99.90
2407;DHT22;37709;53.480;9.688;2023-09-18T14:13:54;27.30;99.90
2407;DHT22;37709;53.480;9.688;2023-09-18T14:16:21;30.00;99.90
2407;DHT22;37709;53.480;9.688;2023-09-18T14:19:15;32.50;98.90
2407;DHT22;37709;53.480;9.688;2023-09-18T14:21:42;33.20;96.50
2407;DHT22;37709;53.480;9.688;2023-09-18T14:24:16;33.00;96.20
2407;DHT22;37709;53.480;9.688;2023-09-18T14:26:50;32.90;96.10
2407;DHT22;37709;53.480;9.688;2023-09-18T14:29:17;33.00;95.30
2407;DHT22;37709;53.480;9.688;2023-09-18T14:31:44;32.30;95.20
2407;DHT22;37709;53.480;9.688;2023-09-18T14:34:14;32.30;95.80
2407;DHT22;37709;53.480;9.688;2023-09-18T14:36:41;31.20;96.20
2407;DHT22;37709;53.480;9.688;2023-09-18T14:39:15;30.50;96.60
2407;DHT22;37709;53.480;9.688;2023-09-18T14:41:45;29.80;97.20
2407;DHT22;37709;53.480;9.688;2023-09-18T14:44:13;29.30;97.60
2407;DHT22;37709;53.480;9.688;2023-09-18T14:46:41;28.90;97.80
2407;DHT22;37709;53.480;9.688;2023-09-18T14:49:08;28.70;98.40
2407;DHT22;37709;53.480;9.688;2023-09-18T14:51:36;28.20;98.60
2407;DHT22;37709;53.480;9.688;2023-09-18T14:54:03;27.90;99.30
2407;DHT22;37709;53.480;9.688;2023-09-18T14:56:33;27.90;99.50
2407;DHT22;37709;53.480;9.688;2023-09-18T14:59:00;28.10;99.30
2407;DHT22;37709;53.480;9.688;2023-09-18T15:01:28;28.50;99.40
2407;DHT22;37709;53.480;9.688;2023-09-18T15:03:56;29.40;98.40
2407;DHT22;37709;53.480;9.688;2023-09-18T15:06:24;30.10;97.40
2407;DHT22;37709;53.480;9.688;2023-09-18T15:08:55;30.90;97.00
2407;DHT22;37709;53.480;9.688;2023-09-18T15:11:22;31.30;96.30
2407;DHT22;37709;53.480;9.688;2023-09-18T15:13:51;31.40;96.40
2407;DHT22;37709;53.480;9.688;2023-09-18T15:16:22;31.30;95.90
2407;DHT22;37709;53.480;9.688;2023-09-18T15:18:53;31.00;95.80
2407;DHT22;37709;53.480;9.688;2023-09-18T15:21:24;30.40;96.40
2407;DHT22;37709;53.480;9.688;2023-09-18T15:23:54;29.90;96.90
2407;DHT22;37709;53.480;9.688;2023-09-18T15:26:21;29.50;97.40
2407;DHT22;37709;53.480;9.688;2023-09-18T15:28:53;29.10;98.40
2407;DHT22;37709;53.480;9.688;2023-09-18T15:31:20;28.70;98.10
2407;DHT22;37709;53.480;9.688;2023-09-18T15:33:48;28.60;98.70
2407;DHT22;37709;53.480;9.688;2023-09-18T15:36:16;28.30;98.60
2407;DHT22;37709;53.480;9.688;2023-09-18T15:38:44;28.20;98.90
2407;DHT22;37709;53.480;9.688;2023-09-18T15:41:11;27.90;99.20
2407;DHT22;37709;53.480;9.688;2023-09-18T15:43:41;27.90;99.50
2407;DHT22;37709;53.480;9.688;2023-09-18T15:46:11;27.60;99.70
2407;DHT22;37709;53.480;9.688;2023-09-18T15:48:40;27.40;99.90
2407;DHT22;37709;53.480;9.688;2023-09-18T15:51:09;27.20;99.90
2407;DHT22;37709;53.480;9.688;2023-09-18T15:53:39;26.90;99.90
2407;DHT22;37709;53.480;9.688;2023-09-18T15:56:07;26.40;99.90
2407;DHT22;37709;53.480;9.688;2023-09-18T15:58:35;26.10;99.90
2407;DHT22;37709;53.480;9.688;2023-09-18T16:01:03;25.80;99.90
2407;DHT22;37709;53.480;9.688;2023-09-18T16:03:39;25.90;99.90
2407;DHT22;37709;53.480;9.688;2023-09-18T16:06:15;25.80;99.90